Chatham, United Kingdom
Current Conditions -  °F | °C
As of 2:50 PM on Sunday 21 Dec 2014 (Local Time) from EGMC Reporting Station
Broken Clouds Broken Clouds  
Wind Chill: 50°   Ceiling: 2300
Heat Index: 50°   Visibility: 6mi
Dew Point: 41°   Wind: 21mph
Humidity: 71%   Direction: 240°WSW
Pressure: 30.24"   Gusts: NA
Location:  51.38°N, 0.53°E
Report Text: EGMC 211450Z 24018KT 9999 BKN023 10/05 Q1024
Loading
Personal Weather Stations






























Interactive Weather Map New forecast layout! Learn more

10-Day Weather Forecast

Advertisements
Track Severe Weather on mobile